createdAt,value
2022-08-18T00:02:20.432Z,67.0
2022-08-18T00:22:20.441Z,67.0
2022-08-18T00:42:20.378Z,67.5
2022-08-18T01:02:20.394Z,68.1
2022-08-18T01:22:20.349Z,69.3
2022-08-18T01:42:20.297Z,68.1
2022-08-18T02:02:20.307Z,69.7
2022-08-18T02:22:20.246Z,70.0
2022-08-18T02:42:20.294Z,70.1
2022-08-18T03:02:20.222Z,70.5
2022-08-18T03:22:20.206Z,70.5
2022-08-18T03:42:20.162Z,72.0
2022-08-18T04:02:20.126Z,73.4
2022-08-18T04:22:20.098Z,75.4
2022-08-18T04:42:20.072Z,77.8
2022-08-18T05:02:20.034Z,78.0
2022-08-18T05:22:20.019Z,79.7
2022-08-18T05:42:20.033Z,80.4
2022-08-18T06:02:19.964Z,81.3
2022-08-18T06:22:19.947Z,77.8
2022-08-18T06:42:19.947Z,78.3
2022-08-18T07:02:19.886Z,81.1
2022-08-18T07:22:19.885Z,79.2
2022-08-18T07:42:19.846Z,79.4
2022-08-18T08:02:19.822Z,78.8
2022-08-18T08:22:19.793Z,77.8
2022-08-18T08:42:19.765Z,81.2
2022-08-18T09:02:19.815Z,80.3
2022-08-18T09:22:19.741Z,82.8
2022-08-18T09:42:19.713Z,83.2
2022-08-18T10:02:19.754Z,82.0
2022-08-18T10:22:19.701Z,77.6
2022-08-18T11:42:19.621Z,71.1
2022-08-18T12:02:19.618Z,69.9
2022-08-18T14:02:19.474Z,58.5
2022-08-18T14:22:19.508Z,58.5
2022-08-18T14:42:19.363Z,57.8
2022-08-18T15:02:19.358Z,55.2
2022-08-18T15:22:19.199Z,54.9
2022-08-18T15:42:19.221Z,54.6
2022-08-18T16:02:19.254Z,54.2
2022-08-18T16:22:19.219Z,53.4
2022-08-18T16:42:19.191Z,53.6
2022-08-18T17:02:19.134Z,53.4
2022-08-18T17:22:19.260Z,53.6
2022-08-18T17:42:19.065Z,53.6
2022-08-18T18:02:19.046Z,52.6
2022-08-18T18:22:19.039Z,53.1
2022-08-18T18:42:19.048Z,53.5
2022-08-18T19:22:18.986Z,54.9
2022-08-18T19:42:18.879Z,56.1
2022-08-18T20:02:18.861Z,57.0
2022-08-18T20:22:18.835Z,58.3
2022-08-18T20:42:18.883Z,59.3
2022-08-18T21:02:18.818Z,61.0
2022-08-18T21:22:18.745Z,63.0
2022-08-18T21:42:18.802Z,64.2
2022-08-18T22:02:18.746Z,65.0
2022-08-18T22:22:18.667Z,65.9
2022-08-18T22:42:18.646Z,65.6
2022-08-18T23:02:18.652Z,66.4
2022-08-18T23:42:18.615Z,66.7
